createdAt,value
2018-07-30T00:01:34.648Z,11.03
2018-07-30T00:04:04.145Z,10.63
2018-07-30T00:06:33.584Z,12.10
2018-07-30T00:09:03.106Z,11.37
2018-07-30T00:11:32.481Z,10.40
2018-07-30T00:14:01.878Z,12.50
2018-07-30T00:16:31.277Z,10.80
2018-07-30T00:19:00.714Z,11.67
2018-07-30T00:21:30.267Z,11.23
2018-07-30T00:24:00.076Z,11.97
2018-07-30T00:26:29.640Z,12.37
2018-07-30T00:28:59.064Z,10.80
2018-07-30T00:31:28.876Z,10.90
2018-07-30T00:33:58.269Z,12.20
2018-07-30T00:36:27.681Z,11.30
2018-07-30T00:38:57.088Z,13.00
2018-07-30T00:41:26.556Z,11.80
2018-07-30T00:43:55.974Z,11.60
2018-07-30T00:46:25.372Z,11.80
2018-07-30T00:48:54.761Z,12.47
2018-07-30T00:51:24.733Z,10.03
2018-07-30T00:53:54.515Z,11.97
2018-07-30T00:56:23.971Z,12.17
2018-07-30T00:58:53.752Z,12.10
2018-07-30T01:01:23.132Z,11.43
2018-07-30T01:03:52.528Z,11.13
2018-07-30T01:06:21.984Z,11.70
2018-07-30T01:08:51.408Z,11.40
2018-07-30T01:11:20.853Z,12.50
2018-07-30T01:13:50.772Z,10.80
2018-07-30T01:16:20.188Z,11.67
2018-07-30T01:18:49.855Z,11.90
2018-07-30T01:21:19.240Z,12.20
2018-07-30T01:23:48.701Z,11.33
2018-07-30T01:26:23.240Z,12.47
2018-07-30T01:28:57.908Z,11.27
2018-07-30T01:31:29.061Z,12.10
2018-07-30T01:34:00.205Z,11.87
2018-07-30T01:36:29.579Z,11.73
2018-07-30T01:38:58.976Z,10.83
2018-07-30T01:41:28.352Z,12.03
2018-07-30T01:43:57.736Z,11.70
2018-07-30T01:46:27.120Z,11.50
2018-07-30T01:48:56.517Z,11.87
2018-07-30T01:51:25.936Z,12.33
2018-07-30T01:53:55.438Z,11.53
2018-07-30T01:56:24.831Z,11.97
2018-07-30T01:58:54.232Z,11.93
2018-07-30T02:01:23.656Z,11.37
2018-07-30T02:03:53.081Z,11.30
2018-07-30T02:06:22.869Z,12.10
2018-07-30T02:08:52.275Z,11.53
2018-07-30T02:11:21.669Z,11.87
2018-07-30T02:13:51.598Z,11.37
2018-07-30T02:16:21.013Z,10.93
2018-07-30T02:18:51.409Z,12.93
2018-07-30T02:21:20.840Z,12.70
2018-07-30T02:23:50.273Z,12.30
2018-07-30T02:26:19.692Z,12.10
2018-07-30T02:28:49.074Z,12.00
2018-07-30T02:31:18.465Z,11.90
2018-07-30T02:33:47.877Z,11.20
2018-07-30T02:36:17.277Z,10.50
2018-07-30T02:38:46.689Z,12.03
2018-07-30T02:41:16.112Z,12.93
2018-07-30T02:43:45.560Z,11.80
2018-07-30T02:46:14.988Z,11.97
2018-07-30T02:48:44.379Z,12.40
2018-07-30T02:51:13.812Z,12.60
2018-07-30T02:53:43.253Z,12.30
2018-07-30T02:56:12.789Z,11.93
2018-07-30T02:58:42.194Z,11.40
2018-07-30T03:01:11.593Z,11.73
2018-07-30T03:03:41.092Z,11.37
2018-07-30T03:06:10.517Z,12.23
2018-07-30T03:08:39.910Z,11.60
2018-07-30T03:11:09.316Z,11.80
2018-07-30T03:13:38.729Z,12.30
2018-07-30T03:16:08.412Z,12.30
2018-07-30T03:18:37.816Z,12.83
2018-07-30T03:21:07.371Z,11.90
2018-07-30T03:23:36.799Z,11.23
2018-07-30T03:26:06.260Z,12.47
2018-07-30T03:28:35.694Z,11.40
2018-07-30T03:31:05.180Z,11.70
2018-07-30T03:33:34.685Z,12.90
2018-07-30T03:36:04.101Z,11.37
2018-07-30T03:38:33.644Z,12.20
2018-07-30T03:41:03.042Z,12.30
2018-07-30T03:43:32.453Z,12.57
2018-07-30T03:46:01.848Z,11.53
2018-07-30T03:48:31.236Z,12.53
2018-07-30T03:51:00.665Z,12.23
2018-07-30T03:53:30.098Z,12.83
2018-07-30T03:55:59.521Z,12.50
2018-07-30T03:58:28.942Z,11.77
2018-07-30T04:00:58.397Z,11.57
2018-07-30T04:03:27.777Z,12.53
2018-07-30T04:05:57.183Z,11.37
2018-07-30T04:08:26.596Z,12.27
2018-07-30T04:10:55.988Z,11.80
2018-07-30T04:13:25.365Z,11.70
2018-07-30T04:15:54.796Z,12.27
2018-07-30T04:18:24.197Z,13.00
2018-07-30T04:20:53.631Z,12.30
2018-07-30T04:23:23.373Z,12.17
2018-07-30T04:25:52.910Z,12.23
2018-07-30T04:28:22.328Z,11.20
2018-07-30T04:30:51.774Z,12.30
2018-07-30T04:33:21.353Z,12.37
2018-07-30T04:35:50.777Z,11.97
2018-07-30T04:38:20.255Z,13.37
2018-07-30T04:40:49.670Z,11.67
2018-07-30T04:43:19.112Z,10.83
2018-07-30T04:45:48.700Z,14.43
2018-07-30T04:48:18.076Z,12.90
2018-07-30T04:50:47.497Z,10.97
2018-07-30T04:53:16.932Z,10.50
2018-07-30T04:55:46.339Z,11.93
2018-07-30T04:58:15.747Z,11.17
2018-07-30T05:00:45.159Z,12.70
2018-07-30T05:03:14.562Z,12.67
2018-07-30T05:05:43.976Z,11.67
2018-07-30T05:08:13.448Z,12.97
2018-07-30T05:10:42.906Z,10.97
2018-07-30T05:13:12.352Z,11.77
2018-07-30T05:15:41.761Z,11.20
2018-07-30T05:18:11.197Z,11.23
2018-07-30T05:20:40.643Z,11.40
2018-07-30T05:23:10.127Z,10.50
2018-07-30T05:25:39.526Z,11.60
2018-07-30T05:28:08.940Z,12.63
2018-07-30T05:30:38.408Z,10.67
2018-07-30T05:33:07.912Z,10.50
2018-07-30T05:35:37.459Z,10.53
2018-07-30T05:38:06.964Z,9.27
2018-07-30T05:40:36.414Z,10.90
2018-07-30T05:43:05.817Z,10.63
2018-07-30T05:45:35.252Z,11.50
2018-07-30T05:48:04.702Z,11.07
2018-07-30T05:50:34.145Z,10.80
2018-07-30T05:53:03.617Z,9.60
2018-07-30T05:55:33.004Z,8.80
2018-07-30T05:58:02.765Z,9.83
2018-07-30T06:00:32.160Z,9.60
2018-07-30T06:03:01.534Z,8.90
2018-07-30T06:05:31.037Z,9.60
2018-07-30T06:08:00.868Z,8.10
2018-07-30T06:10:30.692Z,8.23
2018-07-30T06:13:00.125Z,7.47
2018-07-30T06:15:29.558Z,8.77
2018-07-30T06:17:59.256Z,8.53
2018-07-30T06:20:28.649Z,8.20
2018-07-30T06:22:58.074Z,8.40
2018-07-30T06:25:27.487Z,8.67
2018-07-30T06:27:56.900Z,8.67
2018-07-30T06:30:26.335Z,8.37
2018-07-30T06:32:56.216Z,8.70
2018-07-30T06:35:25.619Z,8.73
2018-07-30T06:37:55.022Z,8.43
2018-07-30T06:40:24.435Z,9.33
2018-07-30T06:42:53.845Z,9.40
2018-07-30T06:45:23.224Z,8.20
2018-07-30T06:47:52.865Z,8.23
2018-07-30T06:50:22.272Z,7.80
2018-07-30T06:52:51.648Z,9.67
2018-07-30T06:55:21.066Z,8.73
2018-07-30T06:57:50.547Z,8.30
2018-07-30T07:00:19.925Z,8.43
2018-07-30T07:02:49.666Z,7.90
2018-07-30T07:05:19.114Z,7.87
2018-07-30T07:07:48.551Z,8.27
2018-07-30T07:10:18.049Z,7.20
2018-07-30T07:12:47.493Z,7.47
2018-07-30T07:15:16.924Z,6.60
2018-07-30T07:17:46.341Z,6.40
2018-07-30T07:20:15.779Z,5.77
2018-07-30T07:22:45.249Z,5.47
2018-07-30T07:25:14.664Z,6.40
2018-07-30T07:27:44.102Z,6.53
2018-07-30T07:30:13.481Z,5.53
2018-07-30T07:32:43.239Z,5.35
2018-07-30T07:35:12.678Z,5.75
2018-07-30T07:37:42.078Z,5.83
2018-07-30T07:40:11.809Z,5.72
2018-07-30T07:42:41.746Z,5.83
2018-07-30T07:45:11.164Z,6.00
2018-07-30T07:47:40.660Z,6.20
2018-07-30T07:50:10.194Z,5.50
2018-07-30T07:52:39.639Z,5.92
2018-07-30T07:55:09.077Z,5.35
2018-07-30T07:57:38.504Z,5.33
2018-07-30T08:00:10.139Z,6.08
2018-07-30T08:02:39.808Z,5.70
2018-07-30T08:05:09.368Z,5.60
2018-07-30T08:07:38.790Z,6.15
2018-07-30T08:10:08.987Z,5.72
2018-07-30T08:12:38.377Z,5.65
2018-07-30T08:15:08.986Z,6.10
2018-07-30T08:17:38.510Z,6.12
2018-07-30T08:20:09.108Z,6.12
2018-07-30T08:22:38.779Z,5.50
2018-07-30T08:25:11.305Z,6.35
2018-07-30T08:27:41.130Z,6.33
2018-07-30T08:30:10.624Z,6.28
2018-07-30T08:32:40.042Z,6.58
2018-07-30T08:35:09.507Z,6.55
2018-07-30T08:37:38.947Z,6.12
2018-07-30T08:40:08.820Z,5.53
2018-07-30T08:42:38.236Z,6.92
2018-07-30T08:45:08.073Z,6.20
2018-07-30T08:47:37.462Z,6.72
2018-07-30T08:50:07.090Z,7.37
2018-07-30T08:52:36.540Z,6.70
2018-07-30T08:55:06.525Z,6.40
2018-07-30T08:57:35.946Z,5.45
2018-07-30T09:00:07.359Z,6.10
2018-07-30T09:02:36.800Z,6.15
2018-07-30T09:05:06.447Z,6.10
2018-07-30T09:07:35.852Z,5.83
2018-07-30T09:10:05.832Z,5.90
2018-07-30T09:12:35.413Z,5.80
2018-07-30T09:15:05.172Z,5.70
2018-07-30T09:17:34.621Z,5.42
2018-07-30T09:20:04.114Z,6.30
2018-07-30T09:22:33.556Z,6.28
2018-07-30T09:25:02.947Z,5.15
2018-07-30T09:27:32.353Z,6.33
2018-07-30T09:30:01.455Z,5.00
2018-07-30T09:32:30.844Z,5.60
2018-07-30T09:35:00.639Z,5.45
2018-07-30T09:37:30.067Z,5.67
2018-07-30T09:39:59.473Z,5.65
2018-07-30T09:42:28.875Z,5.60
2018-07-30T09:44:58.819Z,6.00
2018-07-30T09:47:28.411Z,5.53
2018-07-30T09:49:57.868Z,6.83
2018-07-30T09:52:27.840Z,6.22
2018-07-30T09:54:57.407Z,6.05
2018-07-30T09:57:27.225Z,6.28
2018-07-30T09:59:56.652Z,5.90
2018-07-30T10:02:26.416Z,5.28
2018-07-30T10:04:56.038Z,5.40
2018-07-30T10:07:25.859Z,5.10
2018-07-30T10:09:55.746Z,5.22
2018-07-30T10:12:25.652Z,4.90
2018-07-30T10:14:55.066Z,5.55
2018-07-30T10:17:24.462Z,5.10
2018-07-30T10:19:53.874Z,5.58
2018-07-30T10:22:23.277Z,4.87
2018-07-30T10:24:52.665Z,5.80
2018-07-30T10:27:22.085Z,5.37
2018-07-30T10:29:51.492Z,5.67
2018-07-30T10:32:21.303Z,6.08
2018-07-30T10:34:50.710Z,6.72
2018-07-30T10:37:20.137Z,5.70
2018-07-30T10:39:49.951Z,6.20
2018-07-30T10:42:19.625Z,6.60
2018-07-30T10:44:49.008Z,7.03
2018-07-30T10:47:18.826Z,6.30
2018-07-30T10:49:48.325Z,6.40
2018-07-30T10:52:17.760Z,6.40
2018-07-30T10:54:47.197Z,7.10
2018-07-30T10:57:16.644Z,6.00
2018-07-30T10:59:46.041Z,7.63
2018-07-30T11:02:15.981Z,6.97
2018-07-30T11:04:45.426Z,6.80
2018-07-30T11:07:15.110Z,6.57
2018-07-30T11:09:44.594Z,6.73
2018-07-30T11:12:14.309Z,6.30
2018-07-30T11:14:43.721Z,5.57
2018-07-30T11:17:13.424Z,6.10
2018-07-30T11:19:43.249Z,6.70
2018-07-30T11:22:13.038Z,6.70
2018-07-30T11:24:42.464Z,7.00
2018-07-30T11:27:12.299Z,7.30
2018-07-30T11:29:41.709Z,6.00
2018-07-30T11:32:11.280Z,6.87
2018-07-30T11:34:40.725Z,7.03
2018-07-30T11:37:10.476Z,6.80
2018-07-30T11:39:40.303Z,7.20
2018-07-30T11:42:09.677Z,6.33
2018-07-30T11:44:39.112Z,7.33
2018-07-30T11:47:08.536Z,6.90
2018-07-30T11:49:38.702Z,5.87
2018-07-30T11:52:08.387Z,6.17
2018-07-30T11:54:38.168Z,6.63
2018-07-30T11:57:07.649Z,6.27
2018-07-30T11:59:37.056Z,6.80
2018-07-30T12:02:06.982Z,6.33
2018-07-30T12:04:36.470Z,6.27
2018-07-30T12:07:06.050Z,5.70
2018-07-30T12:09:35.865Z,4.90
2018-07-30T12:12:05.652Z,5.63
2018-07-30T12:14:35.115Z,6.10
2018-07-30T12:17:04.551Z,4.50
2018-07-30T12:19:34.041Z,5.47
2018-07-30T12:22:03.847Z,5.40
2018-07-30T12:24:33.279Z,5.20
2018-07-30T12:27:02.706Z,5.00
2018-07-30T12:29:32.177Z,5.20
2018-07-30T12:32:01.774Z,6.03
2018-07-30T12:34:31.342Z,5.30
2018-07-30T12:37:00.947Z,5.40
2018-07-30T12:39:30.789Z,4.90
2018-07-30T12:42:00.248Z,5.10
2018-07-30T12:44:29.697Z,5.30
2018-07-30T12:46:59.496Z,4.90
2018-07-30T12:49:29.268Z,5.57
2018-07-30T12:51:58.733Z,5.40
2018-07-30T12:54:28.159Z,5.07
2018-07-30T12:56:57.713Z,5.00
2018-07-30T12:59:27.111Z,5.00
2018-07-30T13:01:56.568Z,5.00
2018-07-30T13:04:26.001Z,5.83
2018-07-30T13:06:55.865Z,5.40
2018-07-30T13:09:25.346Z,5.27
2018-07-30T13:11:54.849Z,5.50
2018-07-30T13:14:24.345Z,4.70
2018-07-30T13:16:53.767Z,5.23
2018-07-30T13:19:23.259Z,4.80
2018-07-30T13:21:52.661Z,4.30
2018-07-30T13:24:22.069Z,4.93
2018-07-30T13:26:51.853Z,4.90
2018-07-30T13:29:21.289Z,4.73
2018-07-30T13:31:50.725Z,5.00
2018-07-30T13:34:20.181Z,4.60
2018-07-30T13:36:49.591Z,4.53
2018-07-30T13:39:19.081Z,4.33
2018-07-30T13:41:48.546Z,5.40
2018-07-30T13:44:18.060Z,4.50
2018-07-30T13:46:47.506Z,5.03
2018-07-30T13:49:16.970Z,4.87
2018-07-30T13:51:46.384Z,4.60
2018-07-30T13:54:16.257Z,5.20
2018-07-30T13:56:46.040Z,4.00
2018-07-30T13:59:15.470Z,5.53
2018-07-30T14:01:44.907Z,5.10
2018-07-30T14:04:14.529Z,5.20
2018-07-30T14:06:44.310Z,4.70
2018-07-30T14:09:14.070Z,5.10
2018-07-30T14:11:43.473Z,5.37
2018-07-30T14:14:12.566Z,4.73
2018-07-30T14:16:42.435Z,5.10
2018-07-30T14:19:11.906Z,4.73
2018-07-30T14:21:41.373Z,5.50
2018-07-30T14:24:10.795Z,5.23
2018-07-30T14:26:40.242Z,4.83
2018-07-30T14:29:09.678Z,5.73
2018-07-30T14:31:39.569Z,4.60
2018-07-30T14:34:08.640Z,4.50
2018-07-30T14:36:37.842Z,4.83
2018-07-30T14:39:09.928Z,5.67
2018-07-30T14:41:39.763Z,5.10
2018-07-30T14:44:09.671Z,5.73
2018-07-30T14:46:39.089Z,5.07
2018-07-30T14:49:08.553Z,5.30
2018-07-30T14:51:37.950Z,5.63
2018-07-30T14:54:07.421Z,5.53
2018-07-30T14:56:37.258Z,6.20
2018-07-30T14:59:07.103Z,5.70
2018-07-30T15:01:36.618Z,5.50
2018-07-30T15:04:06.411Z,5.80
2018-07-30T15:06:36.427Z,6.10
2018-07-30T15:09:10.009Z,6.57
2018-07-30T15:11:39.461Z,5.20
2018-07-30T15:14:09.021Z,5.97
2018-07-30T15:16:38.869Z,5.27
2018-07-30T15:19:08.703Z,5.97
2018-07-30T15:21:38.312Z,6.43
2018-07-30T15:24:07.760Z,6.77
2018-07-30T15:26:37.173Z,6.30
2018-07-30T15:29:06.686Z,6.23
2018-07-30T15:31:36.198Z,6.73
2018-07-30T15:34:05.821Z,8.00
2018-07-30T15:36:35.306Z,8.10
2018-07-30T15:39:06.771Z,8.30
2018-07-30T15:41:36.579Z,7.47
2018-07-30T15:46:41.269Z,7.80
2018-07-30T15:54:19.988Z,7.07
2018-07-30T16:01:58.683Z,7.17
2018-07-30T16:04:27.858Z,7.67
2018-07-30T16:06:57.242Z,7.77
2018-07-30T16:09:26.658Z,8.17
2018-07-30T16:11:56.039Z,7.70
2018-07-30T16:14:25.409Z,7.57
2018-07-30T16:16:54.823Z,8.20
2018-07-30T16:19:24.217Z,8.87
2018-07-30T16:21:53.636Z,8.10
2018-07-30T16:24:23.023Z,7.37
2018-07-30T16:26:52.475Z,7.13
2018-07-30T16:29:22.346Z,8.47
2018-07-30T16:31:51.771Z,8.30
2018-07-30T16:34:21.193Z,7.20
2018-07-30T16:36:50.695Z,8.07
2018-07-30T16:39:20.181Z,8.10
2018-07-30T16:41:49.654Z,7.37
2018-07-30T16:44:19.073Z,6.80
2018-07-30T16:49:23.046Z,8.93
2018-07-30T16:51:52.900Z,7.37
2018-07-30T16:54:22.328Z,7.47
2018-07-30T16:56:51.748Z,7.93
2018-07-30T16:59:21.172Z,7.73
2018-07-30T17:01:50.625Z,9.80
2018-07-30T17:09:30.014Z,9.50
2018-07-30T17:11:59.478Z,8.20
2018-07-30T17:14:28.955Z,8.53
2018-07-30T17:16:58.424Z,8.47
2018-07-30T17:19:27.879Z,9.30
2018-07-30T17:21:57.279Z,8.67
2018-07-30T17:24:26.854Z,8.63
2018-07-30T17:26:56.237Z,7.97
2018-07-30T17:29:25.672Z,8.50
2018-07-30T17:31:55.128Z,8.10
2018-07-30T17:34:24.810Z,7.50
2018-07-30T17:36:54.593Z,8.33
2018-07-30T17:39:24.104Z,7.70
2018-07-30T17:41:53.831Z,8.30
2018-07-30T17:44:23.671Z,7.37
2018-07-30T17:46:53.177Z,8.03
2018-07-30T17:49:23.351Z,7.40
2018-07-30T17:51:53.486Z,7.83
2018-07-30T17:54:23.599Z,7.90
2018-07-30T17:56:53.464Z,7.47
2018-07-30T17:59:23.135Z,8.27
2018-07-30T18:01:52.694Z,7.80
2018-07-30T18:04:22.192Z,7.33
2018-07-30T18:06:51.729Z,7.50
2018-07-30T18:09:21.171Z,7.63
2018-07-30T18:11:50.659Z,7.90
2018-07-30T18:14:20.144Z,7.00
2018-07-30T18:16:49.583Z,6.93
2018-07-30T18:19:19.078Z,7.70
2018-07-30T18:21:48.479Z,7.50
2018-07-30T18:24:17.956Z,7.63
2018-07-30T18:26:47.414Z,8.37
2018-07-30T18:29:16.845Z,6.70
2018-07-30T18:31:46.988Z,6.87
2018-07-30T18:34:16.920Z,7.23
2018-07-30T18:36:46.346Z,7.03
2018-07-30T18:39:16.153Z,7.80
2018-07-30T18:41:45.627Z,6.70
2018-07-30T18:44:15.450Z,6.90
2018-07-30T18:46:44.980Z,6.70
2018-07-30T18:49:14.401Z,6.93
2018-07-30T18:51:43.826Z,7.10
2018-07-30T18:54:13.257Z,6.83
2018-07-30T18:56:42.794Z,6.57
2018-07-30T18:59:12.178Z,7.73
2018-07-30T19:01:41.649Z,7.00
2018-07-30T19:04:11.076Z,7.33
2018-07-30T19:06:40.567Z,7.20
2018-07-30T19:09:10.598Z,7.03
2018-07-30T19:11:40.034Z,7.70
2018-07-30T19:14:09.509Z,7.50
2018-07-30T19:16:39.153Z,9.07
2018-07-30T19:19:08.864Z,8.40
2018-07-30T19:21:39.483Z,8.60
2018-07-30T19:24:10.159Z,7.87
2018-07-30T19:26:39.320Z,7.73
2018-07-30T19:29:09.006Z,7.43
2018-07-30T19:31:38.718Z,8.50
2018-07-30T19:34:08.261Z,7.20
2018-07-30T19:36:37.902Z,7.57
2018-07-30T19:39:10.590Z,7.47
2018-07-30T19:41:40.454Z,7.77
2018-07-30T19:44:10.413Z,8.10
2018-07-30T19:46:40.136Z,7.90
2018-07-30T19:49:10.245Z,7.00
2018-07-30T19:51:40.238Z,8.07
2018-07-30T19:54:09.806Z,8.07
2018-07-30T19:56:39.324Z,7.50
2018-07-30T19:59:09.007Z,7.83
2018-07-30T20:01:38.744Z,7.53
2018-07-30T20:04:08.618Z,7.07
2018-07-30T20:06:38.326Z,8.33
2018-07-30T20:09:11.717Z,7.63
2018-07-30T20:11:41.365Z,7.60
2018-07-30T20:14:10.801Z,9.33
2018-07-30T20:16:40.989Z,7.53
2018-07-30T20:19:10.748Z,7.90
2018-07-30T20:21:44.891Z,8.67
2018-07-30T20:24:14.589Z,8.37
2018-07-30T20:26:46.236Z,8.90
2018-07-30T20:29:15.808Z,7.50
2018-07-30T20:31:46.208Z,7.50
2018-07-30T20:34:16.221Z,8.07
2018-07-30T20:36:46.344Z,7.53
2018-07-30T20:39:16.230Z,8.30
2018-07-30T20:41:45.740Z,7.73
2018-07-30T20:44:15.622Z,7.63
2018-07-30T20:46:45.028Z,7.90
2018-07-30T20:49:14.433Z,8.23
2018-07-30T20:51:43.993Z,7.30
2018-07-30T20:54:13.500Z,7.60
2018-07-30T20:56:42.876Z,7.77
2018-07-30T20:59:12.613Z,7.50
2018-07-30T21:01:42.325Z,8.10
2018-07-30T21:04:11.741Z,8.70
2018-07-30T21:06:41.273Z,7.70
2018-07-30T21:09:11.557Z,8.20
2018-07-30T21:11:41.195Z,7.53
2018-07-30T21:14:11.060Z,7.60
2018-07-30T21:16:40.587Z,8.50
2018-07-30T21:19:10.373Z,8.17
2018-07-30T21:21:40.347Z,8.33
2018-07-30T21:24:09.813Z,8.20
2018-07-30T21:26:41.147Z,7.40
2018-07-30T21:29:12.056Z,7.60
2018-07-30T21:31:44.705Z,7.70
2018-07-30T21:34:14.575Z,7.73
2018-07-30T21:36:45.222Z,8.13
2018-07-30T21:39:14.379Z,8.17
2018-07-30T21:41:44.510Z,8.40
2018-07-30T21:44:14.216Z,8.33
2018-07-30T21:46:43.862Z,7.87
2018-07-30T21:49:14.536Z,8.43
2018-07-30T21:51:44.393Z,9.07
2018-07-30T21:54:14.973Z,8.53
2018-07-30T21:56:45.724Z,8.20
2018-07-30T21:59:16.567Z,9.03
2018-07-30T22:01:47.102Z,8.27
2018-07-30T22:04:17.824Z,8.47
2018-07-30T22:06:48.444Z,8.33
2018-07-30T22:09:18.381Z,9.20
2018-07-30T22:11:48.119Z,9.00
2018-07-30T22:14:17.948Z,8.50
2018-07-30T22:16:47.729Z,7.47
2018-07-30T22:19:17.397Z,7.60
2018-07-30T22:21:47.227Z,8.57
2018-07-30T22:24:17.053Z,9.33
2018-07-30T22:26:46.882Z,9.10
2018-07-30T22:29:16.642Z,8.30
2018-07-30T22:31:46.316Z,8.90
2018-07-30T22:34:15.981Z,8.90
2018-07-30T22:36:45.721Z,8.63
2018-07-30T22:39:15.603Z,8.80
2018-07-30T22:41:45.311Z,8.57
2018-07-30T22:44:14.909Z,8.20
2018-07-30T22:46:44.669Z,8.60
2018-07-30T22:49:14.213Z,8.70
2018-07-30T22:51:44.036Z,9.37
2018-07-30T22:54:14.029Z,8.37
2018-07-30T22:56:43.661Z,9.20
2018-07-30T22:59:13.360Z,9.47
2018-07-30T23:01:43.063Z,9.03
2018-07-30T23:04:12.738Z,9.30
2018-07-30T23:06:42.411Z,8.23
2018-07-30T23:09:12.212Z,9.53
2018-07-30T23:11:42.080Z,10.07
2018-07-30T23:14:11.143Z,9.40
2018-07-30T23:16:41.027Z,9.50
2018-07-30T23:19:10.769Z,9.30
2018-07-30T23:21:40.577Z,9.30
2018-07-30T23:24:10.297Z,10.13
2018-07-30T23:26:39.960Z,9.10
2018-07-30T23:29:09.720Z,9.50
2018-07-30T23:31:39.379Z,9.63
2018-07-30T23:34:08.935Z,9.43
2018-07-30T23:36:38.727Z,9.63
2018-07-30T23:39:10.298Z,9.57
2018-07-30T23:41:40.090Z,9.23
2018-07-30T23:44:10.073Z,9.40
2018-07-30T23:46:39.928Z,8.77
2018-07-30T23:49:09.744Z,9.33
2018-07-30T23:51:39.345Z,9.60
2018-07-30T23:54:09.115Z,10.23
2018-07-30T23:56:38.770Z,10.47
2018-07-30T23:59:08.608Z,10.00
